Time;durP1;ratioP1;P1;durP2;ratioP2;P2;SDS_P1;SDS_P2;PMS_P1;PMS_P2;Temp;Humidity;BMP_temperature;BMP_pressure;BME280_temperature;BME280_humidity;BME280_pressure;Samples;Min_cycle;Max_cycle;Signal;HPM_P1;HPM_P2
2024/02/22 00:01:17;;;;;;;;;0.00;0.00;;;;;13.20;100.00;99623.19;6249320;22;45307;-83
2024/02/22 00:03:42;;;;;;;;;2.00;1.00;;;;;13.14;100.00;99626.84;6249143;22;45361;-83
2024/02/22 00:06:08;;;;;;;;;0.00;0.00;;;;;13.18;100.00;99622.34;6248372;22;45316;-83
2024/02/22 00:08:33;;;;;;;;;0.00;0.00;;;;;13.20;100.00;99618.72;6245007;22;47013;-83
2024/02/22 00:10:59;;;;;;;;;0.00;0.00;;;;;13.23;100.00;99607.16;6247083;22;45411;-83
2024/02/22 00:13:24;;;;;;;;;0.00;0.00;;;;;13.25;100.00;99604.44;6272566;22;44768;-84
2024/02/22 00:15:52;;;;;;;;;0.00;0.00;;;;;13.32;100.00;99600.81;6274436;22;45300;-83
2024/02/22 00:18:18;;;;;;;;;0.00;0.00;;;;;13.28;100.00;99597.25;6250009;22;46178;-83
2024/02/22 00:20:44;;;;;;;;;0.00;0.00;;;;;13.24;100.00;99587.53;6249327;22;44788;-83
2024/02/22 00:23:09;;;;;;;;;1.00;0.00;;;;;13.22;100.00;99573.34;6250664;22;44788;-84
2024/02/22 00:25:34;;;;;;;;;0.75;0.75;;;;;13.24;100.00;99584.88;6250310;22;45296;-81
2024/02/22 00:28:00;;;;;;;;;1.00;0.00;;;;;13.27;100.00;99579.50;6276480;22;45359;-82
2024/02/22 00:30:26;;;;;;;;;0.00;0.00;;;;;13.25;100.00;99567.97;6278576;22;45353;-83
2024/02/22 00:32:51;;;;;;;;;0.00;0.00;;;;;13.29;100.00;99568.75;6253122;22;45721;-83
2024/02/22 00:35:17;;;;;;;;;0.00;0.00;;;;;13.27;100.00;99559.91;6280845;22;44846;-83
2024/02/22 00:37:43;;;;;;;;;0.00;0.00;;;;;13.30;100.00;99570.56;6278145;22;45293;-83
2024/02/22 00:40:15;;;;;;;;;0.00;0.00;;;;;13.27;100.00;99550.13;6252929;22;45443;-83
2024/02/22 00:42:41;;;;;;;;;0.00;0.00;;;;;13.29;100.00;99561.69;6281185;22;45386;-83
2024/02/22 00:45:08;;;;;;;;;0.00;0.00;;;;;13.32;100.00;99552.75;6281508;22;45428;-83
2024/02/22 00:47:33;;;;;;;;;0.00;0.00;;;;;13.30;100.00;99550.09;6280353;22;45393;-83
2024/02/22 00:49:58;;;;;;;;;1.00;1.00;;;;;13.27;100.00;99542.13;6277763;22;45346;-83
2024/02/22 00:52:24;;;;;;;;;0.00;0.00;;;;;13.26;100.00;99537.66;6280845;22;44720;-83
2024/02/22 00:54:50;;;;;;;;;0.00;0.00;;;;;13.34;100.00;99540.25;6280165;22;45381;-83
2024/02/22 00:57:15;;;;;;;;;0.00;0.00;;;;;13.28;100.00;99541.19;6250883;22;47164;-83
2024/02/22 00:59:47;;;;;;;;;0.00;0.00;;;;;13.28;100.00;99545.66;6252774;22;44753;-84
2024/02/22 01:02:12;;;;;;;;;0.00;0.00;;;;;13.27;100.00;99533.19;6278020;22;45729;-83
2024/02/22 01:04:38;;;;;;;;;0.00;0.00;;;;;13.27;100.00;99519.84;6251250;22;44887;-84
2024/02/22 01:07:03;;;;;;;;;0.00;0.00;;;;;13.30;100.00;99519.84;6277755;22;46870;-83
2024/02/22 01:09:29;;;;;;;;;0.00;0.00;;;;;13.30;100.00;99525.19;6280160;22;45352;-83
2024/02/22 01:11:55;;;;;;;;;0.00;0.00;;;;;13.22;100.00;99487.91;6282184;22;45357;-84
2024/02/22 01:14:21;;;;;;;;;0.00;0.00;;;;;13.29;100.00;99497.63;6251651;22;45308;-83
2024/02/22 01:16:50;;;;;;;;;0.00;0.00;;;;;13.32;100.00;99494.00;6280969;22;47346;-84
2024/02/22 01:19:16;;;;;;;;;0.00;0.00;;;;;13.38;100.00;99489.41;6255033;22;44905;-84
2024/02/22 01:21:42;;;;;;;;;0.00;0.00;;;;;13.40;100.00;99492.06;6254095;22;45398;-83
2024/02/22 01:24:14;;;;;;;;;0.00;0.00;;;;;13.47;100.00;99469.72;6252330;22;45468;-84
2024/02/22 01:26:40;;;;;;;;;0.00;0.00;;;;;13.36;100.00;99466.34;6272306;22;47071;-84
2024/02/22 01:29:05;;;;;;;;;0.00;0.00;;;;;13.38;100.00;99461.84;6244253;22;45332;-84
2024/02/22 01:31:31;;;;;;;;;1.00;1.00;;;;;13.45;100.00;99457.25;6245862;22;45526;-84
2024/02/22 01:33:56;;;;;;;;;0.00;0.00;;;;;13.44;100.00;99460.88;6270982;22;45428;-84
2024/02/22 01:36:22;;;;;;;;;0.00;0.00;;;;;13.44;100.00;99445.72;6249759;22;44864;-84
2024/02/22 01:38:47;;;;;;;;;0.00;0.00;;;;;13.44;100.00;99435.03;6247194;22;44981;-84
2024/02/22 01:41:13;;;;;;;;;0.00;0.00;;;;;13.48;100.00;99443.88;6250712;22;45102;-84
2024/02/22 01:43:38;;;;;;;;;0.00;0.00;;;;;13.47;100.00;99437.66;6248584;22;45342;-83
2024/02/22 01:46:04;;;;;;;;;0.00;0.00;;;;;13.52;100.00;99433.09;6248468;22;46054;-84
2024/02/22 01:48:31;;;;;;;;;0.00;0.00;;;;;13.53;100.00;99432.19;6248858;22;44898;-83
2024/02/22 01:50:58;;;;;;;;;0.00;0.00;;;;;13.54;100.00;99423.25;6245084;22;45320;-84
2024/02/22 01:53:26;;;;;;;;;0.00;0.00;;;;;13.56;100.00;99423.22;6246615;22;45348;-83
2024/02/22 01:56:00;;;;;;;;;0.00;0.00;;;;;13.57;100.00;99408.94;6250069;22;45210;-82
2024/02/22 01:58:28;;;;;;;;;0.00;0.00;;;;;13.57;100.00;99424.97;6248410;22;45475;-83
2024/02/22 02:00:53;;;;;;;;;0.00;0.00;;;;;13.58;100.00;99410.72;6248426;22;45429;-78
2024/02/22 02:03:20;;;;;;;;;0.00;0.00;;;;;13.54;100.00;99401.88;6248947;22;44994;-78
2024/02/22 02:05:46;;;;;;;;;0.00;0.00;;;;;13.57;100.00;99392.94;6245667;22;46155;-78
2024/02/22 02:08:17;;;;;;;;;0.00;0.00;;;;;13.67;100.00;99383.81;6244100;22;45708;-79
2024/02/22 02:10:42;;;;;;;;;0.00;0.00;;;;;13.55;100.00;99360.03;6244573;22;45395;-78
2024/02/22 02:13:08;;;;;;;;;0.00;0.00;;;;;13.63;100.00;99365.22;6244228;22;45370;-79
2024/02/22 02:15:33;;;;;;;;;0.00;0.00;;;;;13.61;100.00;99362.56;6241909;22;47978;-79
2024/02/22 02:17:59;;;;;;;;;0.00;0.00;;;;;13.63;100.00;99358.06;6241096;22;45323;-79
2024/02/22 02:20:27;;;;;;;;;0.00;0.00;;;;;13.71;100.00;99350.78;6241228;22;45357;-79
2024/02/22 02:23:31;;;;;;;;;0.00;0.00;;;;;13.75;100.00;99347.13;6242456;22;45297;-78
2024/02/22 02:25:57;;;;;;;;;0.00;0.00;;;;;13.65;100.00;99337.56;6181177;22;47068;-80
2024/02/22 02:28:23;;;;;;;;;0.00;0.00;;;;;13.70;100.00;99330.34;6212384;22;45413;-78
2024/02/22 02:30:48;;;;;;;;;0.00;0.00;;;;;13.71;100.00;99332.06;6214184;22;45467;-78
2024/02/22 02:33:13;;;;;;;;;0.25;0.00;;;;;13.69;100.00;99325.88;6214169;22;45355;-78
2024/02/22 02:35:39;;;;;;;;;0.00;0.00;;;;;13.66;100.00;99317.94;6239012;22;46332;-78
2024/02/22 02:38:10;;;;;;;;;0.00;0.00;;;;;13.77;100.00;99320.38;6237437;22;59034;-78
2024/02/22 02:40:36;;;;;;;;;0.00;0.00;;;;;13.67;100.00;99308.13;6212655;22;45522;-78
2024/02/22 02:43:01;;;;;;;;;0.00;0.00;;;;;13.65;100.00;99315.31;6213018;22;45470;-79
2024/02/22 02:45:26;;;;;;;;;0.00;0.00;;;;;13.65;100.00;99309.97;6212115;22;47509;-79
2024/02/22 02:47:52;;;;;;;;;0.00;0.00;;;;;13.67;100.00;99314.34;6240665;22;45750;-79
2024/02/22 02:50:17;;;;;;;;;0.00;0.00;;;;;13.69;100.00;99295.63;6240314;22;45824;-79
2024/02/22 02:52:43;;;;;;;;;0.00;0.00;;;;;13.68;100.00;99293.88;6242389;22;45377;-80
2024/02/22 02:55:12;;;;;;;;;0.00;0.00;;;;;13.67;100.00;99287.63;6215203;22;47872;-79
2024/02/22 02:57:38;;;;;;;;;0.00;0.00;;;;;13.75;100.00;99282.13;6270250;22;45432;-80
2024/02/22 03:00:04;;;;;;;;;0.00;0.00;;;;;13.78;100.00;99272.25;6246222;22;45455;-79
2024/02/22 03:02:30;;;;;;;;;0.00;0.00;;;;;13.76;100.00;99271.41;6273661;22;45253;-80
2024/02/22 03:04:56;;;;;;;;;0.00;0.00;;;;;13.74;100.00;99267.91;6272952;22;46069;-80
2024/02/22 03:07:21;;;;;;;;;0.00;0.00;;;;;13.75;100.00;99248.25;6245175;22;45568;-80
2024/02/22 03:09:46;;;;;;;;;0.00;0.00;;;;;13.73;100.00;99239.41;6275022;22;45806;-80
2024/02/22 03:12:12;;;;;;;;;0.00;0.00;;;;;13.77;100.00;99241.09;6249273;22;45263;-79
2024/02/22 03:14:37;;;;;;;;;0.00;0.00;;;;;13.78;100.00;99242.88;6271568;22;47075;-80
2024/02/22 03:17:02;;;;;;;;;0.00;0.00;;;;;13.84;100.00;99231.16;6248751;22;45352;-79
2024/02/22 03:19:28;;;;;;;;;0.00;0.00;;;;;13.83;100.00;99225.84;6247641;22;45295;-79
2024/02/22 03:21:53;;;;;;;;;0.00;0.00;;;;;13.84;100.00;99223.16;6277662;22;45448;-79
2024/02/22 03:24:19;;;;;;;;;0.00;0.00;;;;;13.85;100.00;99219.53;6273755;22;47282;-80
2024/02/22 03:26:46;;;;;;;;;0.00;0.00;;;;;13.85;100.00;99207.97;6247716;22;53404;-79
2024/02/22 03:29:12;;;;;;;;;0.00;0.00;;;;;13.87;100.00;99193.66;6274645;22;45683;-79
2024/02/22 03:31:38;;;;;;;;;0.00;0.00;;;;;13.90;100.00;99192.72;6246039;22;45362;-78
2024/02/22 03:34:03;;;;;;;;;0.00;0.00;;;;;13.97;100.00;99189.84;6273152;22;47477;-79
2024/02/22 03:36:29;;;;;;;;;0.00;0.00;;;;;13.96;100.00;99187.22;6275505;22;45756;-79
2024/02/22 03:38:54;;;;;;;;;0.00;0.00;;;;;13.97;100.00;99172.94;6221454;22;45929;-80
2024/02/22 03:41:26;;;;;;;;;0.00;0.00;;;;;14.01;100.00;99159.44;6276751;22;45422;-80
2024/02/22 03:43:51;;;;;;;;;0.00;0.00;;;;;13.90;100.00;99141.94;6245690;22;46913;-80
2024/02/22 03:46:17;;;;;;;;;0.00;0.00;;;;;13.93;100.00;99148.06;6274140;22;45322;-79
2024/02/22 03:48:42;;;;;;;;;0.00;0.00;;;;;13.92;100.00;99151.69;6275253;22;45388;-79
2024/02/22 03:51:08;;;;;;;;;0.00;0.00;;;;;13.91;100.00;99149.03;6272135;22;45441;-80
2024/02/22 03:53:33;;;;;;;;;0.00;0.00;;;;;13.88;100.00;99150.00;6272104;22;46045;-79
2024/02/22 03:55:58;;;;;;;;;0.00;0.00;;;;;13.87;100.00;99147.34;6274033;22;45295;-79
2024/02/22 03:58:24;;;;;;;;;0.00;0.00;;;;;13.86;100.00;99138.47;6274154;22;45374;-79
2024/02/22 04:00:49;;;;;;;;;0.00;0.00;;;;;13.89;100.00;99148.19;6272993;22;45424;-80
2024/02/22 04:03:15;;;;;;;;;0.00;0.00;;;;;13.87;100.00;99147.34;6272631;22;46620;-80
2024/02/22 04:05:40;;;;;;;;;0.00;0.00;;;;;13.86;100.00;99148.28;6245743;22;45672;-79
2024/02/22 04:08:06;;;;;;;;;0.00;0.00;;;;;13.89;100.00;99145.53;6246145;22;45427;-80
2024/02/22 04:10:31;;;;;;;;;0.00;0.00;;;;;13.88;100.00;99141.13;6271493;22;45728;-79
2024/02/22 04:12:56;;;;;;;;;0.00;0.00;;;;;13.83;100.00;99116.28;6273375;22;45312;-79
2024/02/22 04:15:22;;;;;;;;;0.00;0.00;;;;;13.82;100.00;99123.44;6273459;22;45344;-80
2024/02/22 04:17:47;;;;;;;;;0.00;0.00;;;;;13.79;100.00;99121.72;6245737;22;45548;-79
2024/02/22 04:20:12;;;;;;;;;0.00;0.00;;;;;13.76;100.00;99126.25;6245871;22;45253;-79
2024/02/22 04:22:48;;;;;;;;;0.00;0.00;;;;;13.82;100.00;99114.56;6245798;22;47243;-80
2024/02/22 04:25:14;;;;;;;;;0.00;0.00;;;;;13.73;100.00;99110.28;6245264;22;45339;-79
2024/02/22 04:27:40;;;;;;;;;0.00;0.00;;;;;13.72;100.00;99109.41;6239520;22;45451;-79
2024/02/22 04:30:06;;;;;;;;;0.00;0.00;;;;;13.75;100.00;99112.00;6242207;22;45380;-79
2024/02/22 04:32:31;;;;;;;;;0.00;0.00;;;;;13.64;100.00;99095.38;6244574;22;45523;-79
2024/02/22 04:34:57;;;;;;;;;0.00;0.00;;;;;13.64;100.00;99100.72;6243036;22;45452;-80
2024/02/22 04:37:22;;;;;;;;;0.00;0.00;;;;;13.67;100.00;99103.31;6242723;22;44787;-79
2024/02/22 04:39:48;;;;;;;;;0.00;0.00;;;;;13.58;100.00;99091.06;6267295;22;45468;-79
2024/02/22 04:42:15;;;;;;;;;0.00;0.00;;;;;13.63;100.00;99092.75;6243912;22;48020;-79
2024/02/22 04:44:40;;;;;;;;;0.00;0.00;;;;;13.62;100.00;99099.88;6242456;22;45354;-79
2024/02/22 04:47:05;;;;;;;;;0.00;0.00;;;;;13.62;100.00;99097.22;6240459;22;45221;-79
2024/02/22 04:49:31;;;;;;;;;0.00;0.00;;;;;13.62;100.00;99083.84;6245025;22;45222;-79
2024/02/22 04:51:57;;;;;;;;;0.00;0.00;;;;;13.68;100.00;99091.72;6241414;22;52398;-79
2024/02/22 04:54:22;;;;;;;;;0.00;0.00;;;;;13.63;100.00;99076.72;6239599;22;45756;-79
2024/02/22 04:56:47;;;;;;;;;0.00;0.00;;;;;13.68;100.00;99080.16;6240229;22;45258;-79
2024/02/22 04:59:13;;;;;;;;;0.00;0.00;;;;;13.62;100.00;99051.81;6240180;22;48246;-80
2024/02/22 05:01:39;;;;;;;;;0.00;0.00;;;;;13.68;100.00;99048.09;6241704;22;47988;-79
2024/02/22 05:04:05;;;;;;;;;0.00;0.00;;;;;13.64;100.00;99039.28;6241073;22;45479;-80
2024/02/22 05:06:30;;;;;;;;;0.00;0.00;;;;;13.69;100.00;99044.50;6239986;22;45409;-81
2024/02/22 05:08:56;;;;;;;;;0.00;0.00;;;;;13.65;100.00;99037.47;6242661;22;45397;-80
2024/02/22 05:11:21;;;;;;;;;0.00;0.00;;;;;13.66;100.00;99024.09;6240141;22;47741;-81
2024/02/22 05:13:47;;;;;;;;;0.00;0.00;;;;;13.65;100.00;99006.28;6239933;22;45399;-80
2024/02/22 05:16:12;;;;;;;;;0.00;0.00;;;;;13.71;100.00;99013.28;6240135;22;45400;-80
2024/02/22 05:18:38;;;;;;;;;0.00;0.00;;;;;13.75;100.00;99007.81;6241803;22;45398;-79
2024/02/22 05:21:04;;;;;;;;;0.00;0.00;;;;;13.76;100.00;98996.22;6240427;22;47424;-79
2024/02/22 05:23:30;;;;;;;;;0.00;0.00;;;;;13.74;100.00;98983.81;6240314;22;45490;-79
2024/02/22 05:25:56;;;;;;;;;0.00;0.00;;;;;13.80;100.00;98979.19;6240954;22;45285;-79
2024/02/22 05:28:28;;;;;;;;;0.00;0.00;;;;;13.79;100.00;98966.75;6269152;22;45441;-81
2024/02/22 05:30:53;;;;;;;;;0.00;0.00;;;;;13.84;100.00;98966.63;6245618;22;47034;-79
2024/02/22 05:33:19;;;;;;;;;0.00;0.00;;;;;13.84;100.00;98963.06;6274002;22;45496;-80
2024/02/22 05:35:44;;;;;;;;;0.00;0.00;;;;;13.87;100.00;98973.66;6270666;22;45436;-80
2024/02/22 05:38:09;;;;;;;;;0.00;0.00;;;;;13.84;100.00;98960.41;6245279;22;45331;-79
2024/02/22 05:40:35;;;;;;;;;0.00;0.00;;;;;13.89;100.00;98971.81;6243801;22;47106;-80
2024/02/22 05:43:00;;;;;;;;;0.00;0.00;;;;;13.87;100.00;98961.16;6246404;22;45484;-80
2024/02/22 05:45:45;;;;;;;;;0.00;0.00;;;;;13.97;100.00;98959.13;6272436;22;59221;-80
2024/02/22 05:48:10;;;;;;;;;0.00;0.00;;;;;13.91;100.00;98945.94;6272341;22;45285;-80
2024/02/22 05:50:36;;;;;;;;;1.00;0.00;;;;;13.91;100.00;98944.13;6274245;22;45229;-80
2024/02/22 05:53:02;;;;;;;;;0.00;0.00;;;;;13.95;100.00;98936.91;6274895;22;45307;-79
2024/02/22 05:55:28;;;;;;;;;19.67;17.00;;;;;14.01;100.00;98934.94;6273312;22;45373;-79
2024/02/22 05:57:59;;;;;;;;;0.00;0.00;;;;;14.12;100.00;98934.63;6277608;22;45304;-80
2024/02/22 06:00:25;;;;;;;;;0.00;0.00;;;;;14.06;100.00;98926.78;6249874;22;47159;-80
2024/02/22 06:02:50;;;;;;;;;0.00;0.00;;;;;14.10;100.00;98917.75;6275843;22;45385;-79
2024/02/22 06:05:15;;;;;;;;;0.00;0.00;;;;;14.07;100.00;98901.81;6248615;22;45360;-80
2024/02/22 06:07:41;;;;;;;;;0.00;0.00;;;;;14.08;100.00;98911.59;6248099;22;45330;-80
2024/02/22 06:10:09;;;;;;;;;0.00;0.00;;;;;14.12;100.00;98907.91;6276859;22;45395;-80
2024/02/22 06:12:35;;;;;;;;;0.00;0.00;;;;;14.14;100.00;98914.06;6275223;22;45481;-80
2024/02/22 06:15:08;;;;;;;;;0.00;0.00;;;;;14.22;100.00;98905.84;6247394;22;45485;-80
2024/02/22 06:17:33;;;;;;;;;0.00;0.00;;;;;14.15;100.00;98914.94;6247748;22;45359;-80
2024/02/22 06:19:59;;;;;;;;;0.00;0.00;;;;;14.13;100.00;98901.63;6246574;22;47129;-79
2024/02/22 06:22:25;;;;;;;;;0.00;0.00;;;;;14.12;100.00;98897.22;6274379;22;44873;-80
2024/02/22 06:24:50;;;;;;;;;0.00;0.00;;;;;14.06;100.00;98888.47;6245617;22;45714;-79
2024/02/22 06:27:15;;;;;;;;;0.00;0.00;;;;;14.07;100.00;98891.09;6273848;22;45407;-79
2024/02/22 06:29:41;;;;;;;;;0.00;0.00;;;;;14.03;100.00;98891.25;6273361;22;48151;-80
2024/02/22 06:32:07;;;;;;;;;0.00;0.00;;;;;13.96;100.00;98890.56;6274103;22;45419;-79
2024/02/22 06:34:36;;;;;;;;;0.00;0.00;;;;;13.95;100.00;98886.13;6249915;22;45417;-79
2024/02/22 06:37:01;;;;;;;;;0.00;0.00;;;;;13.92;100.00;98887.09;6276802;22;45340;-79
2024/02/22 06:39:29;;;;;;;;;0.00;0.00;;;;;13.90;100.00;98878.25;6275715;22;45616;-79
2024/02/22 06:41:55;;;;;;;;;0.00;0.00;;;;;13.91;100.00;98863.97;6274229;22;45480;-79
2024/02/22 06:44:20;;;;;;;;;0.00;0.00;;;;;13.90;100.00;98856.88;6247995;22;44833;-80
2024/02/22 06:46:46;;;;;;;;;0.00;0.00;;;;;13.93;100.00;98856.78;6248784;22;45411;-80
2024/02/22 06:49:15;;;;;;;;;0.00;0.00;;;;;13.95;100.00;98854.06;6249725;22;47181;-79
2024/02/22 06:51:42;;;;;;;;;0.00;0.00;;;;;13.96;100.00;98845.13;6274662;22;45368;-79
2024/02/22 06:54:08;;;;;;;;;0.00;0.00;;;;;14.00;100.00;98852.13;6277609;22;45291;-80
2024/02/22 06:56:33;;;;;;;;;1.00;0.00;;;;;13.99;100.00;98845.03;6245872;22;44778;-79
2024/02/22 06:58:59;;;;;;;;;0.00;0.00;;;;;13.97;100.00;98836.19;6273991;22;45541;-79
2024/02/22 07:01:24;;;;;;;;;0.00;0.00;;;;;13.99;100.00;98834.34;6273996;22;45324;-79
2024/02/22 07:03:49;;;;;;;;;0.00;0.00;;;;;13.94;100.00;98825.59;6276239;22;45682;-78
2024/02/22 07:06:16;;;;;;;;;0.00;0.00;;;;;13.96;100.00;98842.47;6274335;22;45457;-80
2024/02/22 07:08:53;;;;;;;;;0.00;0.00;;;;;13.97;100.00;98849.53;6277838;22;45204;-79
2024/02/22 07:11:19;;;;;;;;;0.00;0.00;;;;;13.96;100.00;98842.47;6276025;22;45426;-80
2024/02/22 07:13:44;;;;;;;;;0.00;0.00;;;;;13.92;100.00;98830.13;6247422;22;45432;-80
2024/02/22 07:16:13;;;;;;;;;0.00;0.00;;;;;13.97;100.00;98830.84;6247788;22;45411;-81
2024/02/22 07:18:39;;;;;;;;;0.00;0.00;;;;;13.93;100.00;98823.84;6276722;22;46270;-79
2024/02/22 07:21:05;;;;;;;;;0.00;0.00;;;;;13.92;100.00;98816.75;6276388;22;45521;-80
2024/02/22 07:23:30;;;;;;;;;0.00;0.00;;;;;13.90;100.00;98814.13;6247799;22;45356;-78
2024/02/22 07:25:59;;;;;;;;;0.00;0.00;;;;;13.97;100.00;98807.66;6273905;22;45429;-80
2024/02/22 07:28:24;;;;;;;;;0.00;0.00;;;;;13.95;100.00;98812.16;6273363;22;46676;-80
2024/02/22 07:30:49;;;;;;;;;0.00;0.00;;;;;13.94;100.00;98814.91;6274438;22;44935;-80
2024/02/22 07:33:16;;;;;;;;;0.00;0.00;;;;;14.49;100.00;98801.59;6247915;22;45367;-80
2024/02/22 07:35:42;;;;;;;;;0.00;0.00;;;;;14.37;100.00;98787.69;6275130;22;45241;-80
2024/02/22 07:38:10;;;;;;;;;0.00;0.00;;;;;14.32;100.00;98783.41;6273453;22;46881;-80
2024/02/22 07:40:39;;;;;;;;;0.00;0.00;;;;;14.26;100.00;98763.09;6246548;22;45472;-80
2024/02/22 07:43:04;;;;;;;;;0.00;0.00;;;;;14.23;100.00;98749.81;6247096;22;45460;-80
2024/02/22 07:45:29;;;;;;;;;0.00;0.00;;;;;14.27;100.00;98761.28;6274940;22;44778;-78
2024/02/22 07:47:55;;;;;;;;;0.00;0.00;;;;;14.24;100.00;98748.00;6245971;22;48258;-80
2024/02/22 07:50:21;;;;;;;;;0.00;0.00;;;;;14.26;100.00;98741.72;6245648;22;45292;-78
2024/02/22 08:08:21;;;;;;;;;0.00;0.00;;;;;14.18;100.00;98685.81;6202612;22;46549;-81
2024/02/22 08:10:53;;;;;;;;;0.00;0.00;;;;;14.26;100.00;98698.94;6247838;22;46776;-81
2024/02/22 08:13:18;;;;;;;;;0.00;0.00;;;;;14.30;100.00;98671.16;6205082;22;46388;-81
2024/02/22 08:15:44;;;;;;;;;0.00;0.00;;;;;14.34;100.00;98667.47;6296787;22;44870;-79
2024/02/22 08:18:09;;;;;;;;;0.00;0.00;;;;;14.34;100.00;98650.53;6296140;22;45301;-80
2024/02/22 08:25:48;;;;;;;;;0.00;0.00;;;;;14.44;100.00;98665.34;6181636;22;46110;-81
2024/02/22 08:28:20;;;;;;;;;0.00;0.00;;;;;14.41;100.00;98644.03;6303052;22;47126;-81
2024/02/22 08:35:59;;;;;;;;;0.00;0.00;;;;;14.35;100.00;98612.16;6274547;22;46830;-81
2024/02/22 08:38:25;;;;;;;;;0.00;0.00;;;;;14.43;100.00;98610.09;6279392;22;46760;-79
2024/02/22 08:40:51;;;;;;;;;0.00;0.00;;;;;14.51;100.00;98625.88;6328346;22;44718;-79
2024/02/22 09:03:09;;;;;;;;;0.00;0.00;;;;;14.71;100.00;98582.38;6259664;22;45366;-81
2024/02/22 09:05:36;;;;;;;;;0.00;0.00;;;;;14.58;100.00;98550.75;6236075;22;44854;-81
2024/02/22 09:08:02;;;;;;;;;0.00;0.00;;;;;14.56;100.00;98547.25;6239062;22;44847;-82
2024/02/22 09:10:37;;;;;;;;;0.00;0.00;;;;;14.52;100.00;98540.22;6234601;22;47062;-82
2024/02/22 09:13:04;;;;;;;;;0.00;0.00;;;;;14.71;100.00;98555.63;6262081;22;44736;-81
2024/02/22 09:15:29;;;;;;;;;0.00;0.00;;;;;14.59;100.00;98540.91;6240048;22;45097;-80
2024/02/22 09:17:56;;;;;;;;;0.00;0.00;;;;;14.73;100.00;98532.34;6240022;22;44879;-82
2024/02/22 09:22:57;;;;;;;;;0.00;0.00;;;;;14.68;100.00;98510.25;6234797;22;45762;-82
2024/02/22 09:25:24;;;;;;;;;0.00;0.00;;;;;14.64;100.00;98500.59;6256186;22;44995;-80
2024/02/22 09:27:50;;;;;;;;;0.00;0.00;;;;;14.79;100.00;98506.22;6299722;22;44806;-80
2024/02/22 09:30:16;;;;;;;;;0.00;0.00;;;;;14.84;100.00;98505.16;6246392;22;46865;-80
2024/02/22 09:32:41;;;;;;;;;0.00;0.00;;;;;14.85;100.00;98509.59;6264055;22;45154;-81
2024/02/22 09:35:07;;;;;;;;;0.00;0.00;;;;;14.75;100.00;98482.34;6262761;22;44729;-81
2024/02/22 09:37:33;;;;;;;;;0.00;0.00;;;;;14.86;100.00;98489.94;6240709;22;45140;-80
2024/02/22 09:39:58;;;;;;;;;0.00;0.00;;;;;14.68;100.00;98454.06;6267666;22;46104;-80
2024/02/22 09:44:59;;;;;;;;;0.00;0.00;;;;;14.56;100.00;98440.25;6359015;22;44924;-81
2024/02/22 09:58:51;;;;;;;;;0.00;0.00;;;;;14.65;100.00;98398.03;6217532;22;46642;-81
2024/02/22 10:01:17;;;;;;;;;0.00;0.00;;;;;14.69;100.00;98407.66;6271552;22;46885;-81
2024/02/22 10:03:42;;;;;;;;;0.00;0.00;;;;;14.91;100.00;98411.19;6267956;22;44862;-82
2024/02/22 10:06:18;;;;;;;;;0.00;0.00;;;;;14.99;100.00;98385.00;6271536;22;44854;-81
2024/02/22 10:16:57;;;;;;;;;0.00;0.00;;;;;15.39;100.00;98367.22;6315526;22;45394;-81
2024/02/22 10:19:22;;;;;;;;;0.00;0.00;;;;;15.30;100.00;98319.41;6328573;22;44871;-82
2024/02/22 10:24:27;;;;;;;;;2.75;2.00;;;;;15.87;100.00;98338.31;6282880;22;45957;-81
2024/02/22 10:27:03;;;;;;;;;0.00;0.00;;;;;15.83;100.00;98325.13;6271692;22;44885;-81
2024/02/22 10:37:14;;;;;;;;;0.00;0.00;;;;;15.96;100.00;98283.44;6329731;22;44863;-82
2024/02/22 10:39:44;;;;;;;;;0.00;0.00;;;;;15.93;100.00;98254.94;6301885;22;44874;-82
2024/02/22 10:42:13;;;;;;;;;0.00;0.00;;;;;16.08;100.00;98282.84;6325725;22;44970;-83
2024/02/22 10:44:46;;;;;;;;;0.00;0.00;;;;;16.13;100.00;98293.34;6325195;22;44787;-82
2024/02/22 10:47:12;;;;;;;;;1.00;1.00;;;;;15.90;100.00;98262.28;6298712;22;44730;-81
2024/02/22 10:50:06;;;;;;;;;1.00;1.00;;;;;16.25;100.00;98292.75;6186648;22;46728;31
2024/02/22 10:52:41;;;;;;;;;0.00;0.00;;;;;16.25;100.00;98278.47;6262229;22;45596;-81
2024/02/22 10:55:15;;;;;;;;;0.50;0.50;;;;;16.34;100.00;98305.72;6256835;22;45872;-81
2024/02/22 10:57:47;;;;;;;;;1.00;1.00;;;;;16.47;100.00;98286.34;6220652;22;45287;-81
2024/02/22 11:00:15;;;;;;;;;1.00;1.00;;;;;16.39;100.00;98289.41;6220671;22;45697;-81
2024/02/22 11:02:42;;;;;;;;;0.00;0.00;;;;;16.14;100.00;98285.22;6246010;22;45106;-81
2024/02/22 11:05:10;;;;;;;;;0.25;0.25;;;;;15.92;100.00;98311.31;6243347;22;45288;-82
2024/02/22 11:07:43;;;;;;;;;1.25;1.00;;;;;15.71;100.00;98292.56;6218484;22;45351;-81
2024/02/22 11:10:10;;;;;;;;;1.00;1.00;;;;;15.42;100.00;98258.22;6218316;22;45388;-81
2024/02/22 11:12:51;;;;;;;;;0.00;0.00;;;;;15.30;100.00;98255.16;6246316;22;48103;-79
2024/02/22 11:15:25;;;;;;;;;5.25;4.75;;;;;15.17;100.00;98238.78;6243926;22;45765;-79
2024/02/22 11:18:02;;;;;;;;;1.00;0.00;;;;;15.19;100.00;98241.38;6243734;22;45300;-78
2024/02/22 11:20:34;;;;;;;;;0.50;0.50;;;;;15.18;100.00;98228.94;6256152;22;45459;-81
2024/02/22 11:28:37;;;;;;;;;0.00;0.00;;;;;15.44;100.00;98181.34;6303452;22;45272;-82
2024/02/22 11:49:14;;;;;;;;;0.25;0.25;;;;;15.67;100.00;98119.47;6284725;22;45347;-81
2024/02/22 11:56:52;;;;;;;;;0.00;0.00;;;;;15.63;100.00;98098.28;6261515;22;46724;-83
2024/02/22 11:59:17;;;;;;;;;28.67;27.00;;;;;15.62;100.00;98092.06;6292853;22;45374;-82
2024/02/22 12:02:02;;;;;;;;;2.00;2.00;;;;;15.49;100.00;98066.81;6286047;22;45918;-81
2024/02/22 12:04:44;;;;;;;;;2.00;2.00;;;;;15.42;100.00;98041.28;6242912;22;47161;-81
2024/02/22 12:07:20;;;;;;;;;4.00;3.75;;;;;15.32;100.00;98019.44;6255532;22;45105;-81
2024/02/22 12:09:46;;;;;;;;;7.25;6.25;;;;;15.30;100.00;98000.75;6291568;22;45302;-83
2024/02/22 12:17:36;;;;;;;;;3.00;3.00;;;;;15.92;100.00;97990.53;6318121;22;45378;-82
2024/02/22 12:20:16;;;;;;;;;0.00;0.00;;;;;15.86;100.00;97957.84;6303215;22;44750;-83
2024/02/22 12:22:45;;;;;;;;;0.00;0.00;;;;;15.98;100.00;97966.09;6288024;22;44854;-84
2024/02/22 12:25:17;;;;;;;;;2.50;1.00;;;;;16.18;100.00;97935.53;6288103;22;47027;-86
2024/02/22 12:27:51;;;;;;;;;1.50;1.50;;;;;16.39;100.00;97929.97;6293619;22;44848;-82
2024/02/22 12:30:16;;;;;;;;;3.50;3.50;;;;;16.50;100.00;97942.78;6295655;22;44784;-84
2024/02/22 12:36:05;;;;;;;;;6.25;6.25;;;;;16.50;100.00;97908.78;6310636;22;45390;-79
2024/02/22 12:38:40;;;;;;;;;3.00;1.75;;;;;16.72;100.00;97907.56;6309752;22;45341;-79
2024/02/22 12:41:14;;;;;;;;;0.00;0.00;;;;;16.51;100.00;97875.63;6309584;22;45249;-78
2024/02/22 12:43:53;;;;;;;;;1.00;0.00;;;;;16.43;100.00;97893.97;6284895;22;45479;-78
2024/02/22 12:46:41;;;;;;;;;1.75;1.75;;;;;16.44;100.00;97889.47;6291217;22;46952;-85
2024/02/22 13:15:09;;;;;;;;;0.00;0.00;;;;;16.20;100.00;97695.00;6316331;22;45191;-81
2024/02/22 13:22:51;;;;;;;;;1.00;1.00;;;;;16.73;100.00;97691.94;6296952;22;45767;-81
2024/02/22 13:25:28;;;;;;;;;0.00;0.00;;;;;16.97;100.00;97720.00;6198476;22;46286;-82
2024/02/22 13:37:04;;;;;;;;;0.00;0.00;;;;;16.37;100.00;97693.16;6244643;22;46875;-81
2024/02/22 13:39:35;;;;;;;;;0.00;0.00;;;;;16.01;100.00;97686.28;6324876;22;45463;-83
2024/02/22 13:42:07;;;;;;;;;0.00;0.00;;;;;15.82;100.00;97674.88;6295987;22;44926;-82
2024/02/22 13:44:33;;;;;;;;;0.25;0.25;;;;;15.74;100.00;97831.56;6297134;22;45038;-84
2024/02/22 13:47:01;;;;;;;;;1.00;0.50;;;;;15.44;100.00;98551.84;6297897;22;44801;-82
2024/02/22 13:49:27;;;;;;;;;0.00;0.00;;;;;23.82;100.00;98765.72;6299026;22;46900;-84
2024/02/22 13:52:26;;;;;;;;;0.00;0.00;;;;;32.24;100.00;97730.28;6286729;22;44867;-84
2024/02/22 13:54:44;;;;;;;;;0.00;0.00;;;;;36.16;100.00;97722.78;6317885;22;44898;-82
2024/02/22 13:57:14;;;;;;;;;0.00;0.00;;;;;38.22;100.00;97694.84;6324283;22;44780;-84
2024/02/22 13:59:40;;;;;;;;;0.00;0.00;;;;;38.22;100.00;97689.28;6323373;22;45611;-82
2024/02/22 14:02:09;;;;;;;;;0.00;0.00;;;;;39.30;100.00;97668.19;6317071;22;44818;-82
2024/02/22 14:04:34;;;;;;;;;0.00;0.00;;;;;37.88;100.00;97189.47;6293267;22;45343;-81